createdAt,value
2019-04-29T00:01:09.327Z,97.60
2019-04-29T00:05:26.120Z,97.60
2019-04-29T00:09:43.130Z,97.50
2019-04-29T00:14:00.067Z,97.20
2019-04-29T00:18:24.651Z,97.40
2019-04-29T00:22:41.123Z,97.60
2019-04-29T00:26:57.593Z,97.60
2019-04-29T00:31:14.261Z,97.90
2019-04-29T00:35:30.719Z,97.90
2019-04-29T00:40:05.422Z,98.10
2019-04-29T00:44:22.160Z,98.20
2019-04-29T00:48:38.592Z,98.20
2019-04-29T00:52:55.515Z,98.50
2019-04-29T00:57:12.335Z,98.60
2019-04-29T01:01:28.900Z,98.50
2019-04-29T01:05:45.546Z,98.40
2019-04-29T01:10:02.636Z,98.40
2019-04-29T01:14:19.404Z,98.50
2019-04-29T01:18:36.334Z,98.40
2019-04-29T01:22:52.916Z,98.50
2019-04-29T01:27:11.333Z,98.50
2019-04-29T01:31:30.095Z,98.50
2019-04-29T01:35:48.445Z,98.40
2019-04-29T01:40:23.957Z,98.50
2019-04-29T01:44:40.415Z,98.40
2019-04-29T01:48:57.429Z,98.60
2019-04-29T01:53:13.883Z,98.70
2019-04-29T01:57:30.319Z,98.50
2019-04-29T02:01:47.406Z,98.50
2019-04-29T02:06:03.906Z,98.70
2019-04-29T02:10:31.453Z,98.70
2019-04-29T02:14:48.320Z,98.60
2019-04-29T02:19:04.865Z,98.60
2019-04-29T02:23:30.149Z,98.50
2019-04-29T02:27:46.578Z,98.60
2019-04-29T02:32:03.345Z,98.60
2019-04-29T02:36:19.790Z,98.70
2019-04-29T02:40:51.412Z,98.80
2019-04-29T02:45:10.051Z,98.70
2019-04-29T02:49:26.523Z,98.70
2019-04-29T02:53:43.002Z,98.70
2019-04-29T02:58:12.512Z,98.80
2019-04-29T03:02:37.091Z,99.20
2019-04-29T03:06:53.628Z,99.00
2019-04-29T03:11:10.646Z,99.00
2019-04-29T03:15:28.883Z,99.20
2019-04-29T03:20:04.288Z,99.10
2019-04-29T03:24:20.712Z,99.20
2019-04-29T03:28:37.174Z,99.50
2019-04-29T03:32:53.627Z,99.30
2019-04-29T03:37:10.063Z,99.40
2019-04-29T03:41:26.613Z,99.40
2019-04-29T03:45:43.182Z,99.50
2019-04-29T03:49:59.824Z,99.80
2019-04-29T03:54:16.298Z,99.50
2019-04-29T03:58:32.826Z,99.60
2019-04-29T04:03:21.348Z,99.50
2019-04-29T04:07:52.194Z,99.40
2019-04-29T04:12:08.775Z,99.30
2019-04-29T04:16:30.174Z,99.40
2019-04-29T04:20:47.107Z,99.30
2019-04-29T04:25:04.991Z,98.90
2019-04-29T04:29:21.579Z,98.80
2019-04-29T04:33:38.085Z,98.60
2019-04-29T04:37:54.602Z,98.50
2019-04-29T04:42:11.152Z,98.40
2019-04-29T04:46:30.749Z,98.40
2019-04-29T04:50:49.274Z,98.30
2019-04-29T04:55:06.595Z,98.20
2019-04-29T04:59:23.533Z,98.10
2019-04-29T05:03:41.340Z,98.30
2019-04-29T05:07:58.161Z,97.60
2019-04-29T05:12:14.742Z,97.00
2019-04-29T05:16:31.699Z,95.80
2019-04-29T05:20:49.234Z,95.20
2019-04-29T05:25:06.501Z,94.70
2019-04-29T05:29:23.120Z,93.70
2019-04-29T05:33:39.609Z,93.60
2019-04-29T05:38:00.950Z,93.30
2019-04-29T05:42:17.591Z,93.10
2019-04-29T05:46:36.027Z,92.90
2019-04-29T05:50:54.464Z,92.60
2019-04-29T05:55:13.707Z,92.70
2019-04-29T05:59:29.389Z,92.40
2019-04-29T06:03:45.825Z,92.30
2019-04-29T06:08:02.919Z,92.40
2019-04-29T06:12:19.903Z,92.60
2019-04-29T06:16:36.857Z,92.20
2019-04-29T06:20:53.713Z,92.60
2019-04-29T06:25:12.263Z,92.00
2019-04-29T06:29:28.802Z,91.90
2019-04-29T06:33:45.270Z,91.80
2019-04-29T06:38:01.922Z,91.00
2019-04-29T06:42:19.555Z,91.40
2019-04-29T06:46:37.008Z,91.00
2019-04-29T06:50:53.537Z,91.40
2019-04-29T06:55:10.858Z,91.50
2019-04-29T06:59:27.476Z,91.30
2019-04-29T07:03:44.076Z,92.10
2019-04-29T07:08:00.963Z,92.20
2019-04-29T07:12:17.511Z,92.20
2019-04-29T07:16:34.363Z,93.00
2019-04-29T07:20:50.858Z,94.00
2019-04-29T07:25:07.843Z,94.80
2019-04-29T07:29:29.673Z,95.30
2019-04-29T07:33:43.072Z,95.80
2019-04-29T07:37:59.611Z,96.60
2019-04-29T07:42:16.501Z,97.30
2019-04-29T07:46:56.429Z,97.70
2019-04-29T07:51:04.085Z,98.10
2019-04-29T07:55:21.010Z,98.30
2019-04-29T07:59:38.343Z,98.60
2019-04-29T08:03:55.997Z,98.90
2019-04-29T08:08:16.632Z,98.80
2019-04-29T08:12:32.404Z,99.10
2019-04-29T08:16:48.937Z,99.40
2019-04-29T08:21:05.423Z,99.70
2019-04-29T08:25:26.048Z,99.80
2019-04-29T08:29:40.945Z,99.60
2019-04-29T08:33:57.776Z,99.90
2019-04-29T08:38:14.248Z,99.90
2019-04-29T08:42:32.686Z,99.90
2019-04-29T08:46:52.770Z,99.90
2019-04-29T08:51:09.536Z,99.90
2019-04-29T08:55:26.605Z,99.90
2019-04-29T08:59:44.929Z,99.90
2019-04-29T09:04:01.448Z,99.90
2019-04-29T09:08:18.402Z,99.90
2019-04-29T09:12:35.029Z,99.90
2019-04-29T09:16:51.739Z,99.90
2019-04-29T09:21:08.550Z,99.90
2019-04-29T09:25:26.304Z,99.90
2019-04-29T09:29:46.320Z,99.90
2019-04-29T09:34:06.739Z,99.90
2019-04-29T09:38:20.557Z,99.90
2019-04-29T09:42:57.137Z,99.90
2019-04-29T09:47:14.369Z,99.90
2019-04-29T09:51:30.975Z,99.90
2019-04-29T09:55:47.712Z,99.90
2019-04-29T10:00:08.114Z,99.90
2019-04-29T10:04:29.279Z,99.90
2019-04-29T10:08:45.942Z,99.90
2019-04-29T10:13:03.002Z,99.90
2019-04-29T10:17:25.774Z,99.90
2019-04-29T10:21:42.272Z,99.90
2019-04-29T10:25:58.863Z,99.90
2019-04-29T10:30:17.666Z,99.90
2019-04-29T10:34:34.275Z,99.90
2019-04-29T10:38:52.697Z,99.90
2019-04-29T10:43:28.196Z,99.90
2019-04-29T10:47:55.950Z,99.90
2019-04-29T10:52:12.816Z,99.90
2019-04-29T10:56:29.390Z,99.90
2019-04-29T11:01:00.835Z,99.90
2019-04-29T11:05:28.363Z,99.90
2019-04-29T11:09:50.734Z,99.90
2019-04-29T11:14:08.110Z,99.90
2019-04-29T11:18:25.139Z,99.90
2019-04-29T11:22:55.914Z,99.90
2019-04-29T11:27:14.430Z,99.90
2019-04-29T11:31:31.992Z,99.90
2019-04-29T11:35:52.324Z,99.90
2019-04-29T11:40:10.642Z,99.90
2019-04-29T11:44:27.972Z,99.90
2019-04-29T11:48:44.873Z,99.90
2019-04-29T11:53:01.582Z,99.90
2019-04-29T11:57:23.210Z,99.90
2019-04-29T12:01:50.970Z,99.90
2019-04-29T12:06:04.956Z,99.90
2019-04-29T12:10:21.547Z,99.90
2019-04-29T12:14:42.814Z,99.90
2019-04-29T12:19:17.054Z,99.90
2019-04-29T12:23:32.487Z,99.90
2019-04-29T12:27:52.803Z,99.90
2019-04-29T12:32:20.606Z,99.90
2019-04-29T12:36:55.070Z,99.90
2019-04-29T12:40:57.055Z,99.90
2019-04-29T12:45:19.597Z,99.90
2019-04-29T12:49:34.955Z,99.90
2019-04-29T12:53:51.458Z,99.90
2019-04-29T12:58:07.988Z,99.90
2019-04-29T13:02:26.617Z,99.90
2019-04-29T13:06:47.891Z,99.90
2019-04-29T13:11:06.709Z,99.90
2019-04-29T13:15:38.585Z,99.90
2019-04-29T13:20:11.761Z,99.90
2019-04-29T13:24:28.204Z,99.90
2019-04-29T13:28:58.970Z,99.90
2019-04-29T13:33:05.894Z,99.90
2019-04-29T13:37:22.083Z,99.90
2019-04-29T13:41:56.319Z,99.90
2019-04-29T13:45:59.186Z,99.90
2019-04-29T13:50:26.708Z,99.90
2019-04-29T13:54:37.153Z,99.90
2019-04-29T13:58:58.620Z,99.90
2019-04-29T14:03:18.404Z,99.90
2019-04-29T14:07:34.880Z,99.90
2019-04-29T14:12:01.385Z,99.90
2019-04-29T14:16:11.937Z,99.90
2019-04-29T14:20:28.829Z,99.90
2019-04-29T14:24:46.996Z,99.90
2019-04-29T14:29:04.161Z,99.90
2019-04-29T14:33:24.335Z,99.90
2019-04-29T14:37:54.537Z,99.90
2019-04-29T14:42:18.711Z,99.90
2019-04-29T14:46:43.309Z,99.90
2019-04-29T14:51:00.580Z,99.90
2019-04-29T14:55:19.980Z,99.90
2019-04-29T14:59:36.248Z,99.90
2019-04-29T15:03:55.217Z,99.90
2019-04-29T15:08:11.904Z,99.90
2019-04-29T15:12:30.952Z,99.90
2019-04-29T15:16:49.474Z,99.90
2019-04-29T15:21:32.307Z,99.90
2019-04-29T15:25:41.826Z,99.90
2019-04-29T15:29:58.559Z,99.90
2019-04-29T15:34:15.153Z,99.90
2019-04-29T15:38:32.240Z,99.90
2019-04-29T15:42:52.669Z,99.90
2019-04-29T15:47:07.509Z,99.90
2019-04-29T15:51:24.140Z,99.90
2019-04-29T15:55:41.340Z,99.90
2019-04-29T16:00:01.089Z,99.90
2019-04-29T16:04:32.440Z,99.90
2019-04-29T16:08:58.963Z,99.90
2019-04-29T16:13:15.433Z,99.90
2019-04-29T16:17:37.750Z,99.90
2019-04-29T16:21:52.520Z,99.90
2019-04-29T16:26:09.092Z,99.90
2019-04-29T16:30:31.263Z,99.90
2019-04-29T16:34:46.870Z,99.90
2019-04-29T16:39:04.766Z,99.90
2019-04-29T16:43:27.778Z,99.90
2019-04-29T16:47:47.481Z,99.90
2019-04-29T16:52:02.409Z,99.90
2019-04-29T16:56:19.787Z,99.90
2019-04-29T17:00:38.407Z,99.90
2019-04-29T17:04:55.284Z,99.90
2019-04-29T17:09:13.910Z,99.90
2019-04-29T17:13:31.623Z,99.90
2019-04-29T17:17:48.184Z,99.90
2019-04-29T17:22:24.731Z,99.90
2019-04-29T17:26:34.238Z,99.90
2019-04-29T17:31:11.277Z,99.90
2019-04-29T17:35:23.178Z,99.90
2019-04-29T17:39:42.520Z,99.90
2019-04-29T17:44:14.564Z,99.90
2019-04-29T17:48:53.135Z,99.90
2019-04-29T17:53:15.336Z,99.90
2019-04-29T17:57:36.579Z,99.90
2019-04-29T18:01:55.275Z,99.90
2019-04-29T18:06:18.803Z,99.90
2019-04-29T18:10:38.646Z,99.90
2019-04-29T18:14:55.117Z,99.90
2019-04-29T18:19:34.528Z,99.90
2019-04-29T18:23:59.256Z,99.90
2019-04-29T18:28:17.848Z,99.90
2019-04-29T18:32:42.326Z,99.90
2019-04-29T18:37:01.747Z,99.90
2019-04-29T18:41:25.171Z,99.90
2019-04-29T18:45:52.746Z,99.90
2019-04-29T18:49:58.579Z,99.90
2019-04-29T18:54:18.310Z,99.90
2019-04-29T18:58:35.643Z,99.90
2019-04-29T19:02:58.363Z,99.90
2019-04-29T19:07:16.695Z,99.90
2019-04-29T19:11:35.214Z,99.90
2019-04-29T19:15:52.721Z,99.90
2019-04-29T19:20:13.434Z,99.90
2019-04-29T19:24:38.996Z,99.90
2019-04-29T19:28:56.764Z,99.90
2019-04-29T19:33:15.122Z,99.90
2019-04-29T19:37:32.507Z,99.90
2019-04-29T19:41:51.611Z,99.90
2019-04-29T19:46:21.515Z,99.90
2019-04-29T19:50:28.082Z,99.90
2019-04-29T19:54:44.616Z,99.90
2019-04-29T19:59:11.620Z,99.90
2019-04-29T20:03:30.992Z,99.90
2019-04-29T20:07:49.731Z,99.90
2019-04-29T20:12:11.439Z,99.90
2019-04-29T20:16:43.082Z,99.90
2019-04-29T20:21:08.129Z,99.90
2019-04-29T20:25:16.403Z,99.90
2019-04-29T20:29:38.087Z,99.90
2019-04-29T20:33:52.185Z,99.90
2019-04-29T20:38:09.129Z,99.90
2019-04-29T20:42:26.076Z,99.90
2019-04-29T20:46:51.729Z,99.90
2019-04-29T20:51:11.525Z,99.90
2019-04-29T20:55:20.095Z,99.90
2019-04-29T20:59:36.787Z,99.90
2019-04-29T21:03:55.989Z,99.90
2019-04-29T21:08:16.301Z,99.90
2019-04-29T21:12:34.744Z,99.90
2019-04-29T21:16:52.673Z,99.90
2019-04-29T21:21:09.293Z,99.90
2019-04-29T21:25:29.426Z,99.90
2019-04-29T21:29:45.716Z,99.90
2019-04-29T21:34:02.781Z,99.90
2019-04-29T21:38:28.327Z,99.90
2019-04-29T21:42:47.414Z,99.90
2019-04-29T21:47:07.929Z,99.90
2019-04-29T21:51:22.981Z,99.90
2019-04-29T21:55:39.740Z,99.90
2019-04-29T21:59:56.282Z,99.90
2019-04-29T22:04:13.245Z,99.90
2019-04-29T22:08:30.184Z,99.90
2019-04-29T22:12:50.935Z,99.90
2019-04-29T22:17:05.373Z,99.90
2019-04-29T22:21:23.436Z,99.90
2019-04-29T22:25:41.030Z,99.90
2019-04-29T22:29:58.582Z,99.90
2019-04-29T22:34:19.051Z,99.90
2019-04-29T22:38:35.632Z,99.90
2019-04-29T22:43:08.388Z,99.90
2019-04-29T22:47:23.496Z,99.90
2019-04-29T22:51:36.726Z,99.90
2019-04-29T22:55:53.187Z,99.90
2019-04-29T23:00:12.387Z,99.90
2019-04-29T23:04:29.041Z,99.90
2019-04-29T23:08:45.480Z,99.90
2019-04-29T23:13:02.066Z,99.90
2019-04-29T23:17:18.501Z,99.90
2019-04-29T23:21:53.330Z,99.90
2019-04-29T23:26:10.720Z,99.90
2019-04-29T23:30:28.267Z,99.90
2019-04-29T23:34:44.699Z,99.90
2019-04-29T23:39:01.126Z,99.90
2019-04-29T23:43:20.042Z,99.90
2019-04-29T23:47:35.997Z,99.90
2019-04-29T23:51:52.553Z,99.90
2019-04-29T23:56:09.795Z,99.90
